createdAt,value
2023-02-04T00:01:23.022Z,2.90
2023-02-04T00:03:52.361Z,2.90
2023-02-04T00:06:20.704Z,3.00
2023-02-04T00:08:49.006Z,2.55
2023-02-04T00:11:18.928Z,3.38
2023-02-04T00:13:47.213Z,2.80
2023-02-04T00:16:15.549Z,3.20
2023-02-04T00:18:43.940Z,2.50
2023-02-04T00:21:12.681Z,2.90
2023-02-04T00:23:40.985Z,2.65
2023-02-04T00:26:09.567Z,3.13
2023-02-04T00:28:40.054Z,2.80
2023-02-04T00:31:08.380Z,2.70
2023-02-04T00:33:36.670Z,2.95
2023-02-04T00:36:05.062Z,3.03
2023-02-04T00:38:33.338Z,3.33
2023-02-04T00:41:01.654Z,2.28
2023-02-04T00:43:29.964Z,2.80
2023-02-04T00:45:59.681Z,2.95
2023-02-04T00:48:28.107Z,2.63
2023-02-04T00:50:56.368Z,2.72
2023-02-04T00:53:24.672Z,2.67
2023-02-04T00:55:52.998Z,2.50
2023-02-04T00:58:21.369Z,2.78
2023-02-04T01:00:49.823Z,2.65
2023-02-04T01:03:19.526Z,2.78
2023-02-04T01:05:47.864Z,3.20
2023-02-04T01:08:16.215Z,2.45
2023-02-04T01:10:44.512Z,3.47
2023-02-04T01:13:13.415Z,3.00
2023-02-04T01:15:41.722Z,3.10
2023-02-04T01:18:10.039Z,2.85
2023-02-04T01:20:39.673Z,3.40
2023-02-04T01:23:07.964Z,3.60
2023-02-04T01:25:36.278Z,3.75
2023-02-04T01:28:04.630Z,3.22
2023-02-04T01:30:33.169Z,3.80
2023-02-04T01:33:01.670Z,3.90
2023-02-04T01:35:29.952Z,3.53
2023-02-04T01:37:59.606Z,3.22
2023-02-04T01:40:28.117Z,3.28
2023-02-04T01:42:56.619Z,3.47
2023-02-04T01:45:24.928Z,3.00
2023-02-04T01:47:53.361Z,3.35
2023-02-04T01:50:21.701Z,3.13
2023-02-04T01:52:50.056Z,2.78
2023-02-04T01:55:20.364Z,3.25
2023-02-04T01:57:49.631Z,3.45
2023-02-04T02:00:19.610Z,3.70
2023-02-04T02:02:48.908Z,2.70
2023-02-04T02:05:18.424Z,2.90
2023-02-04T02:07:46.863Z,2.60
2023-02-04T02:10:15.683Z,3.10
2023-02-04T02:12:45.934Z,3.53
2023-02-04T02:15:14.527Z,3.28
2023-02-04T02:17:42.894Z,2.35
2023-02-04T02:20:13.827Z,3.08
2023-02-04T02:22:47.398Z,3.00
2023-02-04T02:25:17.267Z,3.50
2023-02-04T02:27:45.703Z,3.42
2023-02-04T02:30:17.685Z,3.28
2023-02-04T02:32:46.362Z,2.95
2023-02-04T02:35:15.551Z,3.20
2023-02-04T02:37:43.995Z,3.08
2023-02-04T02:40:13.245Z,2.65
2023-02-04T02:42:44.186Z,3.25
2023-02-04T02:45:14.993Z,3.30
2023-02-04T02:47:43.302Z,3.13
2023-02-04T02:50:15.033Z,2.78
2023-02-04T02:52:43.484Z,2.50
2023-02-04T02:55:15.532Z,2.40
2023-02-04T02:57:46.660Z,2.25
2023-02-04T03:00:15.938Z,2.55
2023-02-04T03:02:44.480Z,2.65
2023-02-04T03:05:13.533Z,2.10
2023-02-04T03:07:41.881Z,2.63
2023-02-04T03:10:10.221Z,2.50
2023-02-04T03:12:38.528Z,2.40
2023-02-04T03:15:08.884Z,2.67
2023-02-04T03:17:37.558Z,2.38
2023-02-04T03:20:06.430Z,2.42
2023-02-04T03:22:34.743Z,2.47
2023-02-04T03:25:03.137Z,2.47
2023-02-04T03:27:31.546Z,2.08
2023-02-04T03:30:00.162Z,2.55
2023-02-04T03:32:29.817Z,2.30
2023-02-04T03:34:58.119Z,2.72
2023-02-04T03:37:26.428Z,2.55
2023-02-04T03:39:56.268Z,1.92
2023-02-04T03:42:25.675Z,1.77
2023-02-04T03:44:53.974Z,2.28
2023-02-04T03:47:22.272Z,2.35
2023-02-04T03:49:51.950Z,2.50
2023-02-04T03:52:20.604Z,2.10
2023-02-04T03:54:48.947Z,2.67
2023-02-04T03:57:17.255Z,2.38
2023-02-04T03:59:45.957Z,1.98
2023-02-04T04:02:14.245Z,2.03
2023-02-04T04:04:42.548Z,2.47
2023-02-04T04:07:12.183Z,2.40
2023-02-04T04:09:40.473Z,2.45
2023-02-04T04:12:09.047Z,2.67
2023-02-04T04:14:37.336Z,2.05
2023-02-04T04:17:05.629Z,2.20
2023-02-04T04:19:33.932Z,2.15
2023-02-04T04:22:02.239Z,2.53
2023-02-04T04:24:31.897Z,2.17
2023-02-04T04:27:00.182Z,1.95
2023-02-04T04:29:28.470Z,2.03
2023-02-04T04:31:56.787Z,2.35
2023-02-04T04:34:25.140Z,2.75
2023-02-04T04:36:53.428Z,2.45
2023-02-04T04:39:22.053Z,2.50
2023-02-04T04:41:51.701Z,4.78
2023-02-04T04:44:19.998Z,2.60
2023-02-04T04:46:48.353Z,3.35
2023-02-04T04:49:17.419Z,2.55
2023-02-04T04:51:45.829Z,2.90
2023-02-04T04:54:14.096Z,2.50
2023-02-04T04:56:42.385Z,2.50
2023-02-04T04:59:12.072Z,2.33
2023-02-04T05:01:40.473Z,2.30
2023-02-04T05:04:08.752Z,2.28
2023-02-04T05:06:37.051Z,2.33
2023-02-04T05:09:05.433Z,2.42
2023-02-04T05:11:33.760Z,2.15
2023-02-04T05:14:02.020Z,2.50
2023-02-04T05:16:31.714Z,1.95
2023-02-04T05:19:00.072Z,2.10
2023-02-04T05:21:28.399Z,2.75
2023-02-04T05:23:56.684Z,2.30
2023-02-04T05:26:30.280Z,2.10
2023-02-04T05:29:00.352Z,1.95
2023-02-04T05:31:28.877Z,2.30
2023-02-04T05:33:58.536Z,2.80
2023-02-04T05:36:27.069Z,1.95
2023-02-04T05:38:55.382Z,2.50
2023-02-04T05:41:23.736Z,2.05
2023-02-04T05:43:52.020Z,2.17
2023-02-04T05:46:20.335Z,2.22
2023-02-04T05:48:48.662Z,2.55
2023-02-04T05:51:18.307Z,2.72
2023-02-04T05:53:46.598Z,2.50
2023-02-04T05:56:14.913Z,2.25
2023-02-04T05:58:43.195Z,2.55
2023-02-04T06:01:11.572Z,3.03
2023-02-04T06:03:40.237Z,1.80
2023-02-04T06:06:08.608Z,1.95
2023-02-04T06:08:38.246Z,2.10
2023-02-04T06:11:06.625Z,1.88
2023-02-04T06:13:34.894Z,2.13
2023-02-04T06:16:03.242Z,1.75
2023-02-04T06:18:31.576Z,1.85
2023-02-04T06:20:59.907Z,1.75
2023-02-04T06:23:28.213Z,2.38
2023-02-04T06:25:57.891Z,1.88
2023-02-04T06:28:26.216Z,4.00
2023-02-04T06:30:54.576Z,7.15
2023-02-04T06:33:24.043Z,7.78
2023-02-04T06:35:53.849Z,6.65
2023-02-04T06:38:22.145Z,4.90
2023-02-04T06:40:53.671Z,4.47
2023-02-04T06:43:25.478Z,5.13
2023-02-04T06:45:54.328Z,6.75
2023-02-04T06:48:22.670Z,5.10
2023-02-04T06:50:50.969Z,3.55
2023-02-04T06:53:19.259Z,6.65
2023-02-04T06:55:47.574Z,8.70
2023-02-04T06:58:16.226Z,9.43
2023-02-04T07:00:45.882Z,9.98
2023-02-04T07:03:14.176Z,4.32
2023-02-04T07:05:42.466Z,3.95
2023-02-04T07:08:10.735Z,5.45
2023-02-04T07:10:39.035Z,3.67
2023-02-04T07:13:07.319Z,3.97
2023-02-04T07:15:35.695Z,3.70
2023-02-04T07:18:05.591Z,4.82
2023-02-04T07:20:34.314Z,4.22
2023-02-04T07:23:02.832Z,6.50
2023-02-04T07:25:31.144Z,5.07
2023-02-04T07:28:01.656Z,3.75
2023-02-04T07:30:30.363Z,2.47
2023-02-04T07:32:58.878Z,1.25
2023-02-04T07:35:28.558Z,0.63
2023-02-04T07:37:56.838Z,0.40
2023-02-04T07:40:25.135Z,0.60
2023-02-04T07:42:53.395Z,0.70
2023-02-04T07:45:21.664Z,1.30
2023-02-04T07:47:49.952Z,0.80
2023-02-04T07:50:18.340Z,1.13
2023-02-04T07:52:48.189Z,0.70
2023-02-04T07:55:16.612Z,0.80
2023-02-04T07:57:44.900Z,1.10
2023-02-04T08:00:14.504Z,0.85
2023-02-04T08:02:43.086Z,0.98
2023-02-04T08:05:12.006Z,1.60
2023-02-04T08:07:40.309Z,1.30
2023-02-04T08:10:11.636Z,1.20
2023-02-04T08:12:40.123Z,5.22
2023-02-04T08:15:08.948Z,11.07
2023-02-04T08:17:37.317Z,31.10
2023-02-04T08:20:06.023Z,5.03
2023-02-04T08:22:35.145Z,2.75
2023-02-04T08:25:03.469Z,1.38
2023-02-04T08:27:33.355Z,1.58
2023-02-04T08:30:01.676Z,1.30
2023-02-04T08:32:31.243Z,1.25
2023-02-04T08:34:59.766Z,1.52
2023-02-04T08:37:28.173Z,2.00
2023-02-04T08:39:56.396Z,2.10
2023-02-04T08:42:24.980Z,2.92
2023-02-04T08:44:54.588Z,1.60
2023-02-04T08:47:22.897Z,1.92
2023-02-04T08:49:51.176Z,1.15
2023-02-04T08:52:19.596Z,1.90
2023-02-04T08:54:47.890Z,1.60
2023-02-04T08:57:16.771Z,1.67
2023-02-04T08:59:45.890Z,1.20
2023-02-04T09:02:15.870Z,1.25
2023-02-04T09:04:44.170Z,1.25
2023-02-04T09:07:12.487Z,1.30
2023-02-04T09:09:40.767Z,1.40
2023-02-04T09:12:09.118Z,1.50
2023-02-04T09:14:37.421Z,1.60
2023-02-04T09:17:05.914Z,1.10
2023-02-04T09:19:35.615Z,1.00
2023-02-04T09:22:03.978Z,0.98
2023-02-04T09:24:32.286Z,1.60
2023-02-04T09:27:00.635Z,1.30
2023-02-04T09:29:28.931Z,1.63
2023-02-04T09:31:58.222Z,1.25
2023-02-04T09:34:26.580Z,1.20
2023-02-04T09:36:56.524Z,1.23
2023-02-04T09:39:24.808Z,1.08
2023-02-04T09:41:54.230Z,1.10
2023-02-04T09:44:24.386Z,0.70
2023-02-04T09:46:54.153Z,0.73
2023-02-04T09:49:22.572Z,0.90
2023-02-04T09:51:51.654Z,0.95
2023-02-04T09:54:21.975Z,0.90
2023-02-04T09:56:50.920Z,1.33
2023-02-04T09:59:20.062Z,1.20
2023-02-04T10:01:52.317Z,1.05
2023-02-04T10:04:20.923Z,0.85
2023-02-04T10:06:49.217Z,0.90
2023-02-04T10:09:18.144Z,1.08
2023-02-04T10:11:49.354Z,0.95
2023-02-04T10:14:19.988Z,0.93
2023-02-04T10:16:50.545Z,1.00
2023-02-04T10:19:18.869Z,1.33
2023-02-04T10:21:47.930Z,1.05
2023-02-04T10:24:18.105Z,1.00
2023-02-04T10:26:47.875Z,1.17
2023-02-04T10:29:17.276Z,0.70
2023-02-04T10:31:46.855Z,0.77
2023-02-04T10:34:18.444Z,1.33
2023-02-04T10:36:48.254Z,1.10
2023-02-04T10:39:17.827Z,0.93
2023-02-04T10:41:49.719Z,0.80
2023-02-04T10:44:19.427Z,0.90
2023-02-04T10:46:48.362Z,0.82
2023-02-04T10:49:19.101Z,3.00
2023-02-04T10:51:48.038Z,1.27
2023-02-04T10:54:31.605Z,1.20
2023-02-04T10:57:02.392Z,1.50
2023-02-04T10:59:30.752Z,1.13
2023-02-04T11:02:01.093Z,1.10
2023-02-04T11:04:29.812Z,0.93
2023-02-04T11:07:00.237Z,1.35
2023-02-04T11:09:28.642Z,0.65
2023-02-04T11:12:00.864Z,1.10
2023-02-04T11:14:31.643Z,1.00
2023-02-04T11:17:03.710Z,0.80
2023-02-04T11:19:33.903Z,1.23
2023-02-04T11:22:09.685Z,0.98
2023-02-04T11:24:38.087Z,1.00
2023-02-04T11:27:10.534Z,0.77
2023-02-04T11:29:41.630Z,0.73
2023-02-04T11:32:28.506Z,0.80
2023-02-04T11:34:57.380Z,0.80
2023-02-04T11:37:39.039Z,1.10
2023-02-04T11:40:22.688Z,0.80
2023-02-04T11:42:52.209Z,1.00
2023-02-04T11:45:23.193Z,1.20
2023-02-04T11:47:54.185Z,1.10
2023-02-04T11:50:25.008Z,0.90
2023-02-04T11:52:53.420Z,1.95
2023-02-04T11:55:21.728Z,1.85
2023-02-04T11:57:53.778Z,1.20
2023-02-04T12:00:24.735Z,0.93
2023-02-04T12:02:56.703Z,0.90
2023-02-04T12:05:36.859Z,1.25
2023-02-04T12:08:12.141Z,1.33
2023-02-04T12:10:40.630Z,1.40
2023-02-04T12:13:15.040Z,0.75
2023-02-04T12:15:45.743Z,9.18
2023-02-04T12:18:16.882Z,5.93
2023-02-04T12:20:45.174Z,5.97
2023-02-04T12:23:13.504Z,6.38
2023-02-04T12:25:44.759Z,2.10
2023-02-04T12:28:13.526Z,1.60
2023-02-04T12:30:45.064Z,1.30
2023-02-04T12:33:15.175Z,1.20
2023-02-04T12:35:43.522Z,1.13
2023-02-04T12:38:14.690Z,1.08
2023-02-04T12:40:43.296Z,1.00
2023-02-04T12:43:11.707Z,0.88
2023-02-04T12:45:45.633Z,0.73
2023-02-04T12:48:15.685Z,0.73
2023-02-04T12:50:44.070Z,1.17
2023-02-04T12:53:12.826Z,0.77
2023-02-04T12:55:41.334Z,1.00
2023-02-04T12:58:09.629Z,1.30
2023-02-04T13:00:38.023Z,1.80
2023-02-04T13:03:06.443Z,1.10
2023-02-04T13:05:37.106Z,1.08
2023-02-04T13:08:07.789Z,1.20
2023-02-04T13:10:36.225Z,1.17
2023-02-04T13:13:07.368Z,1.55
2023-02-04T13:15:35.698Z,1.45
2023-02-04T13:18:04.395Z,0.80
2023-02-04T13:20:33.605Z,1.13
2023-02-04T13:23:03.257Z,2.00
2023-02-04T13:25:32.224Z,1.45
2023-02-04T13:28:00.762Z,1.25
2023-02-04T13:30:29.235Z,1.20
2023-02-04T13:32:57.526Z,1.10
2023-02-04T13:35:25.948Z,1.00
2023-02-04T13:37:56.295Z,2.50
2023-02-04T13:40:26.403Z,1.52
2023-02-04T13:42:56.592Z,1.30
2023-02-04T13:45:25.278Z,1.20
2023-02-04T13:47:55.726Z,0.90
2023-02-04T13:50:24.123Z,1.00
2023-02-04T13:52:52.473Z,1.30
2023-02-04T13:55:20.773Z,1.00
2023-02-04T13:57:50.450Z,0.90
2023-02-04T14:00:21.736Z,1.63
2023-02-04T14:02:50.219Z,1.50
2023-02-04T14:05:18.579Z,1.30
2023-02-04T14:07:47.234Z,0.88
2023-02-04T14:10:15.573Z,1.00
2023-02-04T14:12:45.665Z,0.95
2023-02-04T14:15:15.541Z,0.85
2023-02-04T14:17:43.829Z,0.80
2023-02-04T14:20:13.065Z,1.00
2023-02-04T14:22:41.436Z,0.73
2023-02-04T14:25:10.314Z,1.33
2023-02-04T14:27:43.975Z,1.08
2023-02-04T14:30:17.989Z,0.88
2023-02-04T14:32:46.315Z,3.63
2023-02-04T14:35:15.043Z,5.65
2023-02-04T14:37:43.384Z,2.35
2023-02-04T14:40:12.457Z,1.73
2023-02-04T14:42:40.875Z,1.50
2023-02-04T14:45:10.339Z,1.30
2023-02-04T14:47:41.036Z,1.10
2023-02-04T14:50:10.548Z,0.90
2023-02-04T14:52:38.857Z,1.20
2023-02-04T14:55:08.834Z,1.30
2023-02-04T14:57:37.130Z,1.50
2023-02-04T15:00:06.801Z,1.20
2023-02-04T15:02:35.215Z,0.93
2023-02-04T15:05:05.180Z,3.67
2023-02-04T15:07:33.489Z,3.92
2023-02-04T15:10:01.941Z,3.97
2023-02-04T15:12:30.280Z,3.92
2023-02-04T15:14:58.667Z,4.13
2023-02-04T15:17:26.978Z,2.10
2023-02-04T15:19:55.290Z,1.52
2023-02-04T15:22:25.195Z,0.90
2023-02-04T15:24:53.479Z,1.00
2023-02-04T15:27:21.817Z,2.30
2023-02-04T15:29:50.110Z,1.35
2023-02-04T15:32:18.501Z,1.95
2023-02-04T15:34:46.839Z,1.10
2023-02-04T15:37:15.178Z,1.05
2023-02-04T15:39:44.788Z,0.70
2023-02-04T15:42:13.090Z,0.88
2023-02-04T15:44:41.385Z,0.90
2023-02-04T15:47:09.767Z,1.10
2023-02-04T15:49:38.061Z,1.00
2023-02-04T15:52:10.933Z,1.80
2023-02-04T15:54:41.829Z,1.30
2023-02-04T15:57:11.465Z,1.98
2023-02-04T15:59:39.772Z,1.50
2023-02-04T16:02:08.446Z,1.58
2023-02-04T16:04:36.895Z,1.10
2023-02-04T16:07:08.326Z,1.30
2023-02-04T16:09:37.297Z,1.20
2023-02-04T16:12:09.052Z,1.50
2023-02-04T16:14:38.896Z,2.22
2023-02-04T16:17:09.631Z,2.05
2023-02-04T16:19:37.929Z,2.50
2023-02-04T16:22:07.318Z,2.45
2023-02-04T16:24:35.902Z,1.90
2023-02-04T16:27:04.451Z,2.47
2023-02-04T16:29:32.760Z,2.13
2023-02-04T16:32:02.478Z,1.90
2023-02-04T16:34:30.760Z,2.30
2023-02-04T16:36:59.082Z,2.10
2023-02-04T16:39:27.388Z,2.72
2023-02-04T16:41:55.787Z,3.80
2023-02-04T16:44:24.072Z,2.85
2023-02-04T16:46:52.460Z,2.17
2023-02-04T16:49:23.286Z,1.70
2023-02-04T16:51:51.610Z,2.50
2023-02-04T16:54:20.046Z,2.20
2023-02-04T16:56:48.351Z,10.55
2023-02-04T16:59:16.798Z,10.02
2023-02-04T17:01:45.150Z,9.07
2023-02-04T17:04:13.729Z,6.68
2023-02-04T17:06:44.083Z,8.10
2023-02-04T17:09:12.361Z,7.57
2023-02-04T17:11:40.862Z,5.15
2023-02-04T17:14:10.707Z,10.52
2023-02-04T17:16:40.111Z,11.15
2023-02-04T17:19:08.368Z,9.98
2023-02-04T17:21:37.872Z,11.80
2023-02-04T17:24:08.014Z,16.65
2023-02-04T17:26:38.145Z,15.90
2023-02-04T17:29:07.026Z,15.70
2023-02-04T17:31:35.569Z,15.80
2023-02-04T17:34:04.209Z,4.63
2023-02-04T17:36:32.913Z,3.65
2023-02-04T17:39:01.458Z,4.63
2023-02-04T17:41:33.162Z,3.80
2023-02-04T17:44:04.234Z,4.60
2023-02-04T17:46:34.340Z,6.38
2023-02-04T17:49:03.162Z,7.45
2023-02-04T17:51:31.757Z,10.30
2023-02-04T17:54:00.050Z,10.23
2023-02-04T17:56:28.491Z,9.63
2023-02-04T17:58:58.234Z,6.57
2023-02-04T18:01:26.660Z,4.05
2023-02-04T18:03:55.194Z,3.15
2023-02-04T18:06:25.171Z,2.63
2023-02-04T18:08:56.476Z,2.20
2023-02-04T18:11:27.545Z,2.53
2023-02-04T18:14:01.590Z,6.43
2023-02-04T18:16:31.197Z,4.20
2023-02-04T18:19:01.381Z,9.02
2023-02-04T18:21:30.358Z,9.23
2023-02-04T18:24:02.425Z,8.98
2023-02-04T18:26:30.805Z,6.75
2023-02-04T18:29:00.801Z,5.05
2023-02-04T18:31:34.917Z,5.45
2023-02-04T18:34:03.741Z,6.22
2023-02-04T18:36:33.886Z,7.30
2023-02-04T18:39:03.178Z,6.38
2023-02-04T18:41:36.349Z,7.72
2023-02-04T18:44:23.705Z,8.27
2023-02-04T18:46:51.992Z,10.00
2023-02-04T18:49:26.920Z,7.22
2023-02-04T18:51:56.779Z,6.90
2023-02-04T18:54:30.137Z,7.28
2023-02-04T18:57:11.671Z,6.35
2023-02-04T18:59:41.607Z,7.63
2023-02-04T19:02:20.051Z,6.38
2023-02-04T19:04:48.363Z,7.00
2023-02-04T19:07:17.080Z,8.45
2023-02-04T19:09:45.369Z,8.98
2023-02-04T19:12:21.372Z,7.90
2023-02-04T19:14:51.074Z,9.23
2023-02-04T19:17:23.125Z,10.20
2023-02-04T19:19:56.261Z,11.35
2023-02-04T19:22:30.479Z,10.80
2023-02-04T19:25:00.611Z,11.93
2023-02-04T19:27:30.403Z,13.68
2023-02-04T19:30:01.051Z,6.70
2023-02-04T19:32:30.596Z,5.75
2023-02-04T19:35:00.574Z,5.03
2023-02-04T19:37:30.141Z,5.53
2023-02-04T19:39:58.461Z,5.40
2023-02-04T19:42:33.662Z,4.82
2023-02-04T19:45:04.252Z,4.72
2023-02-04T19:47:39.257Z,4.90
2023-02-04T19:50:22.713Z,5.20
2023-02-04T19:52:52.227Z,5.97
2023-02-04T19:55:31.691Z,6.57
2023-02-04T19:58:01.453Z,6.95
2023-02-04T20:00:37.205Z,7.20
2023-02-04T20:03:12.812Z,7.20
2023-02-04T20:05:41.115Z,6.88
2023-02-04T20:08:25.072Z,6.57
2023-02-04T20:10:53.341Z,6.78
2023-02-04T20:13:22.835Z,7.53
2023-02-04T20:15:57.971Z,6.05
2023-02-04T20:18:31.747Z,4.93
2023-02-04T20:23:29.897Z,6.70
2023-02-04T20:25:58.201Z,6.75
2023-02-04T20:28:39.921Z,7.65
2023-02-04T20:31:23.567Z,7.65
2023-02-04T20:33:54.295Z,7.78
2023-02-04T20:36:38.144Z,6.68
2023-02-04T20:39:26.109Z,6.07
2023-02-04T20:41:54.508Z,5.38
2023-02-04T20:44:26.624Z,4.15
2023-02-04T20:46:57.800Z,3.92
2023-02-04T20:49:28.822Z,4.13
2023-02-04T20:51:59.232Z,3.75
2023-02-04T20:54:29.493Z,3.92
2023-02-04T20:57:06.153Z,4.50
2023-02-04T20:59:34.982Z,4.57
2023-02-04T21:02:05.026Z,4.93
2023-02-04T21:04:51.896Z,5.60
2023-02-04T21:07:21.314Z,5.65
2023-02-04T21:09:49.910Z,7.78
2023-02-04T21:12:18.477Z,7.05
2023-02-04T21:14:46.907Z,8.50
2023-02-04T21:17:15.231Z,10.15
2023-02-04T21:19:46.416Z,10.00
2023-02-04T21:22:14.707Z,10.13
2023-02-04T21:24:44.669Z,8.05
2023-02-04T21:27:13.157Z,9.25
2023-02-04T21:29:41.443Z,9.15
2023-02-04T21:32:10.038Z,8.77
2023-02-04T21:34:38.348Z,9.60
2023-02-04T21:37:08.075Z,8.05
2023-02-04T21:39:36.386Z,7.00
2023-02-04T21:42:10.983Z,7.00
2023-02-04T21:44:41.746Z,6.68
2023-02-04T21:47:10.052Z,6.95
2023-02-04T21:49:41.329Z,7.28
2023-02-04T21:52:13.349Z,7.53
2023-02-04T21:54:41.703Z,6.85
2023-02-04T21:57:10.267Z,8.38
2023-02-04T21:59:38.841Z,7.63
2023-02-04T22:02:07.871Z,8.63
2023-02-04T22:04:36.196Z,8.65
2023-02-04T22:07:04.459Z,9.00
2023-02-04T22:09:34.183Z,9.82
2023-02-04T22:12:04.331Z,9.18
2023-02-04T22:14:50.193Z,9.60
2023-02-04T22:17:18.731Z,10.02
2023-02-04T22:19:47.394Z,9.20
2023-02-04T22:22:15.802Z,7.65
2023-02-04T22:24:46.055Z,7.07
2023-02-04T22:27:14.393Z,5.60
2023-02-04T22:29:42.710Z,4.82
2023-02-04T22:32:11.250Z,5.43
2023-02-04T22:34:39.581Z,6.35
2023-02-04T22:37:08.391Z,6.20
2023-02-04T22:39:38.280Z,6.78
2023-02-04T22:42:08.649Z,7.30
2023-02-04T22:44:37.023Z,7.47
2023-02-04T22:47:08.623Z,8.55
2023-02-04T22:49:37.115Z,8.60
2023-02-04T22:52:06.743Z,8.40
2023-02-04T22:54:35.111Z,7.47
2023-02-04T22:57:05.568Z,7.10
2023-02-04T22:59:37.571Z,6.70
2023-02-04T23:02:06.002Z,6.55
2023-02-04T23:04:34.401Z,6.65
2023-02-04T23:07:04.792Z,5.88
2023-02-04T23:09:33.708Z,5.82
2023-02-04T23:12:12.739Z,5.20
2023-02-04T23:14:43.563Z,5.78
2023-02-04T23:17:14.429Z,5.80
2023-02-04T23:19:42.751Z,6.15
2023-02-04T23:22:11.503Z,5.68
2023-02-04T23:24:39.995Z,6.18
2023-02-04T23:27:11.092Z,6.20
2023-02-04T23:29:40.078Z,6.32
2023-02-04T23:32:09.989Z,7.15
2023-02-04T23:34:38.373Z,6.88
2023-02-04T23:37:06.758Z,6.18
2023-02-04T23:39:35.111Z,6.82
2023-02-04T23:42:04.722Z,7.25
2023-02-04T23:44:33.081Z,7.25
2023-02-04T23:47:01.852Z,7.00
2023-02-04T23:49:31.524Z,8.48
2023-02-04T23:52:01.929Z,9.07
2023-02-04T23:54:30.342Z,8.55
2023-02-04T23:56:59.959Z,7.72
2023-02-04T23:59:28.412Z,8.07
